Terminal Aerodrome Forecast
Issued by NWS

Home | Current Version | Previous Version | Text Only | Print | Product List | Glossary On
Versions: 1 2 3 4 5 6 7 8 9 10 11 12
642
FTPA31 PHFO 122344
TAFHTO
TAF
PHTO 122344Z 1300/1324 14010KT P6SM VCSH SCT030 SCT050
     FM130600 22007KT P6SM VCSH SCT025 BKN040
     FM132100 14010KT P6SM SCT030 SCT050=

USA.gov is the U.S. government's official web portal to all federal, state and local government web resources and services.